Tindouf Airport

DAOF · Tindouf, 阿尔及利亚

METAR DAOF · Tindouf Airport

19 六月 12:00 LT
40m
罗盘
风向 的 风向 310° Tindouf Airport 8/26
风: 16 kt, 4 beaufort

9 kt

13 kt
改变
0 ft 1.000 2.000 3.000 4.000 5.000
CAVOK
METAR DAOF 191100Z 31016KT CAVOK 31/08 Q1014

METAR Tindouf Airport - DAOF/TIN

Tindouf Airport是,阿尔及利亚中的中型机场。 该机场位于纬度27,70040和经度-8,16710。 该机场有2条跑道: 8/26 和 8R/26L. 本场的ICAO机场代码为DAOF。 该机场的IATA代码为TIN。 机场在Alger FIR中。

该航空气象观测是针对Tindouf Airport在2024年6月19日 12:00, 当地时间进行的。

机场观察

风向为310°,速度为16 kt。

天气为CAVOK。这意味着在5.000 ft或MSA(最低安全高度)以下(以较高者为准)以下没有云。这也意味着没有观测到积雨云或高耸的积云,可见度为10 km 或者更多或更高。此外,不会有雾,降雨或其他重要天气。

温度和风寒是31 °C。 露点为8 °C,相对湿度为24%。 海平面上的气压为1014 hPa (QNH)。

白天

今天,太阳从06:37升起,在20:31降落。 这适用于Tindouf Airport,世界夏令时可能有所不同。 当地时间与世界标准时间之间的时差为+1 小时。 夏令时目前正在进行中。

公司介绍

我们没有关于这个机场的公司信息。

体会

到Vliegles.nl去找飞行课程,跳伞和其他飞行体验。 浏览页面,了解Tindouf Airport附近所有可用的活动。 你也可以使用搜索功能来寻找你所在地附近的特定飞行课程、跳伞或其他飞行体验。

跑道

Id 标题 侧风 逆风 侧风 %
8/26 075°-255° 13 kt 9 kt 82 %
8R/26L 076°-256° 13 kt 9 kt 81 %

逆风成分最大的方向会被突出显示,并用于横风计算。 这并不一定意味着这个方向在使用。

温度 & 天气

温度 31 °C
露点 8 °C
相对湿度 24%
Kp-index 1 (0-9)

白天

日出
06:37
中午
13:34
日落
20:31 (7:51)

小工具

你想在你的网站上有一个关于Tindouf Airport的当前航空天气(METAR)的小部件吗?

显示HTML代码
报告变更